Time;durP1;ratioP1;P1;durP2;ratioP2;P2;SDS_P1;SDS_P2;PMS_P1;PMS_P2;Temp;Humidity;BMP_temperature;BMP_pressure;BME280_temperature;BME280_humidity;BME280_pressure;Samples;Min_cycle;Max_cycle;Signal;HPM_P1;HPM_P2
2024/04/03 00:01:46;;;;;;;4.40;2.42;;;;;;;12.51;100.00;100622.72;5248947;28;20033;-80
2024/04/03 00:04:17;;;;;;;3.83;1.70;;;;;;;12.50;100.00;100623.66;5247561;28;20051;-80
2024/04/03 00:06:49;;;;;;;6.03;2.38;;;;;;;12.48;100.00;100623.00;5251139;28;20101;-80
2024/04/03 00:09:21;;;;;;;4.78;1.92;;;;;;;12.47;100.00;100616.09;5232759;28;20057;-80
2024/04/03 00:11:53;;;;;;;3.38;1.63;;;;;;;12.46;100.00;100620.50;5251499;28;20043;-80
2024/04/03 00:14:25;;;;;;;4.75;1.92;;;;;;;12.46;100.00;100617.06;5255864;28;20482;-80
2024/04/03 00:16:57;;;;;;;3.55;1.60;;;;;;;12.44;100.00;100619.03;5257299;28;20083;-80
2024/04/03 00:19:29;;;;;;;8.75;2.15;;;;;;;12.41;100.00;100614.88;5257813;28;20039;-80
2024/04/03 00:22:01;;;;;;;3.75;2.00;;;;;;;12.39;100.00;100604.53;5256623;28;20132;-80
2024/04/03 00:24:33;;;;;;;6.82;1.85;;;;;;;12.43;100.00;100599.81;5253981;28;20525;-80
2024/04/03 00:27:04;;;;;;;4.05;1.70;;;;;;;12.39;100.00;100591.38;5253364;28;20053;-80
2024/04/03 00:29:37;;;;;;;4.05;1.85;;;;;;;12.43;100.00;100602.44;5254045;28;20041;-80
2024/04/03 00:32:09;;;;;;;6.57;2.28;;;;;;;12.46;100.00;100602.09;5252540;28;20044;-80
2024/04/03 00:34:41;;;;;;;3.70;1.50;;;;;;;12.46;100.00;100609.16;5254587;28;20029;-80
2024/04/03 00:37:13;;;;;;;3.42;1.60;;;;;;;12.39;100.00;100601.91;5254686;28;20478;-80
2024/04/03 00:39:45;;;;;;;4.43;1.73;;;;;;;12.38;100.00;100596.78;5255713;28;20029;-80
2024/04/03 00:42:17;;;;;;;5.28;2.00;;;;;;;12.43;100.00;100604.22;5259261;28;20036;-80
2024/04/03 00:44:50;;;;;;;5.93;1.80;;;;;;;12.42;100.00;100598.13;5258654;28;20045;-80
2024/04/03 00:47:22;;;;;;;;;;;;;;;13.15;100.00;100587.47;5260077;28;20029;-80
2024/04/03 00:49:55;;;;;;;6.10;2.17;;;;;;;12.49;100.00;100574.72;5259520;28;19962;-80
2024/04/03 00:52:27;;;;;;;4.45;1.45;;;;;;;12.43;100.00;100570.09;5258497;28;20025;-80
2024/04/03 00:55:00;;;;;;;4.57;1.58;;;;;;;12.43;100.00;100572.72;5259770;28;20486;-80
2024/04/03 00:57:33;;;;;;;;;;;;;;;13.15;100.00;100571.69;5260026;28;20201;-80
2024/04/03 01:00:08;;;;;;;4.80;1.90;;;;;;;12.46;100.00;100575.84;5259418;28;19920;-80
2024/04/03 01:02:40;;;;;;;3.67;1.55;;;;;;;12.39;100.00;100562.50;5258155;28;20067;-80
2024/04/03 01:05:12;;;;;;;4.55;2.25;;;;;;;12.41;100.00;100571.03;5257812;28;20033;-80
2024/04/03 01:07:43;;;;;;;3.75;1.38;;;;;;;12.38;100.00;100565.25;5259852;28;20046;-80
2024/04/03 01:10:15;;;;;;;6.30;2.10;;;;;;;12.36;100.00;100561.97;5259853;28;20032;-80
2024/04/03 01:12:48;;;;;;;6.07;1.65;;;;;;;12.36;100.00;100567.22;5238019;28;20040;-79
2024/04/03 01:15:21;;;;;;;3.57;1.33;;;;;;;12.38;100.00;100560.81;5257563;28;20039;-80
2024/04/03 01:17:53;;;;;;;4.93;1.83;;;;;;;12.37;100.00;100558.34;5256096;28;20044;-80
2024/04/03 01:20:25;;;;;;;8.00;1.65;;;;;;;12.33;100.00;100555.19;5257919;28;20307;-80
2024/04/03 01:22:57;;;;;;;3.95;1.98;;;;;;;12.31;100.00;100543.16;5257099;28;20033;-80
2024/04/03 01:25:28;;;;;;;5.10;1.75;;;;;;;12.31;100.00;100545.78;5236498;28;20037;-80
2024/04/03 01:28:00;;;;;;;6.47;1.67;;;;;;;12.33;100.00;100541.22;5256424;28;20415;-80
2024/04/03 01:30:33;;;;;;;4.85;2.00;;;;;;;12.30;100.00;100533.66;5236733;28;20037;-80
2024/04/03 01:33:05;;;;;;;4.25;2.30;;;;;;;12.28;100.00;100523.31;5253397;28;20028;-80
2024/04/03 01:35:37;;;;;;;5.78;2.10;;;;;;;12.31;100.00;100530.88;5255651;28;20486;-80
2024/04/03 01:38:09;;;;;;;5.18;2.30;;;;;;;12.31;100.00;100532.66;5233435;28;20047;-80
2024/04/03 01:40:41;;;;;;;4.85;1.90;;;;;;;12.33;100.00;100521.03;5254357;28;20403;-80
2024/04/03 01:43:13;;;;;;;4.68;2.03;;;;;;;12.30;100.00;100523.13;5252370;28;20066;-79
2024/04/03 01:45:45;;;;;;;5.32;2.20;;;;;;;12.26;100.00;100511.28;5253892;28;20049;-80
2024/04/03 01:48:17;;;;;;;4.40;1.80;;;;;;;12.28;100.00;100507.53;5256362;28;20577;-79
2024/04/03 01:50:49;;;;;;;7.63;2.40;;;;;;;12.28;100.00;100515.41;5252501;28;20037;-80
2024/04/03 01:53:21;;;;;;;7.18;2.00;;;;;;;12.28;100.00;100506.72;5257197;28;20055;-80
2024/04/03 01:55:57;;;;;;;6.45;2.30;;;;;;;12.39;100.00;100504.69;5255819;28;20034;-80
2024/04/03 01:58:29;;;;;;;3.63;2.00;;;;;;;12.30;100.00;100500.31;5256998;28;20035;-80
2024/04/03 02:01:01;;;;;;;6.80;2.08;;;;;;;12.27;100.00;100492.72;5257570;28;20025;-80
2024/04/03 02:03:33;;;;;;;6.70;2.10;;;;;;;12.30;100.00;100492.44;5253762;28;20037;-80
2024/04/03 02:06:05;;;;;;;4.90;2.00;;;;;;;12.29;100.00;100480.28;5252239;28;20037;-80
2024/04/03 02:08:37;;;;;;;4.18;2.00;;;;;;;12.32;100.00;100482.63;5249527;28;20056;-80
2024/04/03 02:11:09;;;;;;;6.03;2.25;;;;;;;12.32;100.00;100485.25;5251722;28;20045;-80
2024/04/03 02:13:41;;;;;;;5.15;1.88;;;;;;;12.29;100.00;100482.91;5252157;28;20055;-80
2024/04/03 02:16:13;;;;;;;8.20;2.25;;;;;;;12.20;100.00;100465.44;5252016;28;20036;-80
2024/04/03 02:18:45;;;;;;;4.28;1.90;;;;;;;12.21;100.00;100458.38;5252440;28;20036;-80
2024/04/03 02:21:17;;;;;;;4.63;1.65;;;;;;;12.18;100.00;100456.88;5253791;28;20025;-80
2024/04/03 02:23:49;;;;;;;5.68;2.00;;;;;;;12.22;100.00;100455.59;5232313;28;20049;-80
2024/04/03 02:26:20;;;;;;;5.63;1.67;;;;;;;12.24;100.00;100450.22;5252301;28;20033;-80
2024/04/03 02:28:52;;;;;;;7.13;1.90;;;;;;;12.23;100.00;100443.28;5252181;28;20064;-79
2024/04/03 02:31:24;;;;;;;5.45;1.70;;;;;;;12.19;100.00;100434.88;5251215;28;20044;-79
2024/04/03 02:33:56;;;;;;;4.18;1.70;;;;;;;12.23;100.00;100436.22;5251832;28;20028;-79
2024/04/03 02:36:28;;;;;;;4.05;1.65;;;;;;;12.22;100.00;100433.75;5251482;28;20048;-79
2024/04/03 02:39:00;;;;;;;4.05;1.70;;;;;;;12.17;100.00;100426.34;5250988;28;20496;-80
2024/04/03 02:41:32;;;;;;;5.18;1.73;;;;;;;12.19;100.00;100434.88;5249600;28;20074;-80
2024/04/03 02:44:05;;;;;;;4.75;2.00;;;;;;;12.18;100.00;100428.00;5251131;28;20049;-79
2024/04/03 02:46:37;;;;;;;5.68;2.13;;;;;;;12.16;100.00;100430.78;5252050;28;20028;-79
2024/04/03 02:49:10;;;;;;;3.63;1.67;;;;;;;12.16;100.00;100429.97;5251470;28;20032;-79
2024/04/03 02:51:42;;;;;;;3.85;1.67;;;;;;;12.16;100.00;100422.06;5247108;28;21083;-79
2024/04/03 02:54:13;;;;;;;5.63;1.67;;;;;;;12.09;100.00;100421.03;5251938;28;20036;-80
2024/04/03 02:56:45;;;;;;;4.65;1.63;;;;;;;12.12;100.00;100426.81;5250631;28;20037;-79
2024/04/03 02:59:17;;;;;;;5.43;1.80;;;;;;;12.08;100.00;100421.97;5250268;28;20029;-80
2024/04/03 03:01:52;;;;;;;4.18;1.60;;;;;;;12.16;100.00;100420.28;5251507;28;20486;-79
2024/04/03 03:04:25;;;;;;;5.00;1.80;;;;;;;12.08;100.00;100420.16;5252236;28;20032;-80
2024/04/03 03:06:56;;;;;;;6.10;1.73;;;;;;;12.13;100.00;100417.13;5252031;28;20048;-80
2024/04/03 03:09:28;;;;;;;4.65;1.60;;;;;;;12.12;100.00;100415.44;5253688;28;20130;-80
2024/04/03 03:12:00;;;;;;;5.78;1.33;;;;;;;12.03;100.00;100403.22;5252387;28;20037;-79
2024/04/03 03:14:32;;;;;;;5.72;2.00;;;;;;;12.10;100.00;100409.53;5254657;28;20090;-80
2024/04/03 03:17:04;;;;;;;6.30;1.50;;;;;;;12.10;100.00;100406.91;5253319;28;20043;-80
2024/04/03 03:19:36;;;;;;;6.72;1.88;;;;;;;12.12;100.00;100408.41;5252821;28;20413;-80
2024/04/03 03:22:08;;;;;;;4.95;1.75;;;;;;;12.09;100.00;100392.97;5253662;28;20035;-79
2024/04/03 03:24:40;;;;;;;4.57;1.58;;;;;;;12.06;100.00;100395.06;5232989;28;20037;-80
2024/04/03 03:27:12;;;;;;;4.18;1.50;;;;;;;12.09;100.00;100389.50;5250898;28;20047;-80
2024/04/03 03:29:44;;;;;;;6.13;1.77;;;;;;;12.10;100.00;100393.78;5251502;28;20041;-80
2024/04/03 03:32:16;;;;;;;3.05;1.27;;;;;;;12.09;100.00;100392.16;5252444;28;20031;-80
2024/04/03 03:34:48;;;;;;;4.47;1.90;;;;;;;12.08;100.00;100377.34;5252033;28;20032;-79
2024/04/03 03:37:20;;;;;;;4.00;1.60;;;;;;;12.09;100.00;100382.47;5251775;28;20868;-80
2024/04/03 03:39:51;;;;;;;4.18;1.80;;;;;;;12.08;100.00;100372.91;5232801;28;21125;-79
2024/04/03 03:42:23;;;;;;;4.85;1.65;;;;;;;12.08;100.00;100375.53;5250797;28;20394;-79
2024/04/03 03:44:55;;;;;;;4.70;1.70;;;;;;;12.08;100.00;100366.84;5251517;28;20047;-79
2024/04/03 03:47:27;;;;;;;4.38;1.42;;;;;;;12.06;100.00;100367.00;5248747;28;20379;-80
2024/04/03 03:52:49;;;;;;;5.03;2.08;;;;;;;12.04;100.00;100358.44;5249726;28;20041;-80
2024/04/03 03:55:21;;;;;;;4.85;1.40;;;;;;;12.02;100.00;100357.78;5252701;28;20029;-80
2024/04/03 03:57:53;;;;;;;5.47;1.55;;;;;;;12.02;100.00;100363.03;5253019;28;20033;-80
2024/04/03 04:00:25;;;;;;;3.33;1.48;;;;;;;12.03;100.00;100361.22;5251558;28;20079;-80
2024/04/03 04:02:57;;;;;;;5.10;1.92;;;;;;;12.04;100.00;100347.94;5233742;28;20040;-79
2024/04/03 04:05:29;;;;;;;4.45;1.55;;;;;;;12.03;100.00;100355.97;5250021;28;20060;-80
2024/04/03 04:08:02;;;;;;;6.47;1.80;;;;;;;12.04;100.00;100352.38;5250381;28;20043;-80
2024/04/03 04:10:34;;;;;;;6.95;1.60;;;;;;;12.03;100.00;100332.34;5252031;28;20037;-80
2024/04/03 04:13:06;;;;;;;5.45;1.98;;;;;;;12.04;100.00;100337.44;5243158;28;20048;-80
2024/04/03 04:15:38;;;;;;;6.65;1.77;;;;;;;11.97;100.00;100327.69;5250184;28;20025;-80
2024/04/03 04:18:10;;;;;;;4.65;1.65;;;;;;;12.02;100.00;100334.16;5253360;28;20035;-80
2024/04/03 04:20:42;;;;;;;5.53;1.95;;;;;;;12.08;100.00;100330.91;5253132;28;20025;-80
2024/04/03 04:23:14;;;;;;;5.50;1.90;;;;;;;12.05;100.00;100327.78;5250218;28;20036;-80
2024/04/03 04:25:54;;;;;;;4.30;1.85;;;;;;;12.16;100.00;100324.91;5251732;28;20029;-80
2024/04/03 04:28:26;;;;;;;5.60;2.17;;;;;;;12.01;100.00;100323.78;5233168;28;20048;-80
2024/04/03 04:30:59;;;;;;;4.15;1.83;;;;;;;12.01;100.00;100322.00;5248889;28;20033;-79
2024/04/03 04:33:33;;;;;;;4.70;1.63;;;;;;;12.02;100.00;100315.78;5250863;28;20033;-80
2024/04/03 04:36:05;;;;;;;5.78;1.52;;;;;;;12.02;100.00;100321.03;5251169;28;20040;-79
2024/04/03 04:38:37;;;;;;;6.28;2.30;;;;;;;12.06;100.00;100324.16;5249209;28;20048;-80
2024/04/03 04:41:09;;;;;;;7.65;1.90;;;;;;;12.04;100.00;100312.97;5248213;28;20487;-79
2024/04/03 04:43:41;;;;;;;7.53;2.47;;;;;;;11.95;100.00;100298.97;5249271;28;20033;-79
2024/04/03 04:46:13;;;;;;;5.75;2.10;;;;;;;12.02;100.00;100309.69;5250603;28;20027;-79
2024/04/03 04:48:45;;;;;;;5.55;1.63;;;;;;;12.04;100.00;100319.06;5249952;28;20483;-80
2024/04/03 04:51:20;;;;;;;6.10;1.90;;;;;;;12.00;100.00;100307.22;5250917;28;20041;-79
2024/04/03 04:53:51;;;;;;;6.63;2.20;;;;;;;12.04;100.00;100307.72;5230512;28;20462;-79
2024/04/03 04:56:23;;;;;;;3.55;1.95;;;;;;;12.03;100.00;100311.34;5249777;28;20040;-80
2024/04/03 04:58:55;;;;;;;9.05;2.58;;;;;;;12.03;100.00;100319.22;5250436;28;20037;-79
2024/04/03 05:01:27;;;;;;;7.30;1.80;;;;;;;12.01;100.00;100308.03;5254361;28;20445;-80
2024/04/03 05:04:00;;;;;;;9.90;2.55;;;;;;;12.02;100.00;100309.69;5253314;28;20031;-79
2024/04/03 05:06:32;;;;;;;6.87;2.07;;;;;;;12.04;100.00;100307.72;5253029;28;20762;-79
2024/04/03 05:09:05;;;;;;;6.85;2.38;;;;;;;12.05;100.00;100310.22;5251525;28;20553;-80
2024/04/03 05:11:37;;;;;;;6.07;2.38;;;;;;;12.02;100.00;100302.66;5250849;28;20025;-79
2024/04/03 05:14:09;;;;;;;8.10;2.28;;;;;;;11.99;100.00;100297.69;5251904;28;20033;-79
2024/04/03 05:16:41;;;;;;;6.15;2.15;;;;;;;12.02;100.00;100307.06;5253758;28;20036;-80
2024/04/03 05:19:13;;;;;;;7.15;2.42;;;;;;;11.95;100.00;100290.28;5252061;28;20029;-79
2024/04/03 05:21:45;;;;;;;5.18;2.17;;;;;;;12.00;100.00;100293.25;5253645;28;20394;-79
2024/04/03 05:24:17;;;;;;;5.68;2.05;;;;;;;12.00;100.00;100291.47;5253512;28;20048;-79
2024/04/03 05:26:49;;;;;;;4.53;1.88;;;;;;;11.99;100.00;100281.13;5261399;28;20031;-79
2024/04/03 05:29:21;;;;;;;5.15;2.08;;;;;;;12.01;100.00;100295.75;5266945;28;20489;-80
2024/04/03 05:31:53;;;;;;;6.10;2.30;;;;;;;11.95;100.00;100277.16;5264097;28;20039;-82
2024/04/03 05:34:25;;;;;;;3.97;1.70;;;;;;;11.95;100.00;100280.59;5261319;28;20032;-79
2024/04/03 05:36:57;;;;;;;4.18;2.00;;;;;;;11.95;100.00;100267.47;5262299;28;20126;-80
2024/04/03 05:39:29;;;;;;;6.20;2.10;;;;;;;12.01;100.00;100273.91;5272058;28;20040;-80
2024/04/03 05:42:01;;;;;;;4.45;1.95;;;;;;;11.99;100.00;100275.88;5267998;28;20088;-80
2024/04/03 05:44:33;;;;;;;4.32;1.88;;;;;;;11.99;100.00;100283.75;5255756;28;20402;-80
2024/04/03 05:47:05;;;;;;;4.95;2.15;;;;;;;11.95;100.00;100271.91;5253258;28;20040;-80
2024/04/03 05:49:37;;;;;;;7.00;2.20;;;;;;;11.97;100.00;100272.56;5252891;28;20033;-81
2024/04/03 05:52:08;;;;;;;6.10;1.90;;;;;;;11.97;100.00;100269.94;5254942;28;20439;-80
2024/04/03 05:54:40;;;;;;;4.30;1.90;;;;;;;11.95;100.00;100258.78;5256859;28;20043;-79
2024/04/03 05:57:13;;;;;;;4.70;1.60;;;;;;;12.00;100.00;100270.47;5262830;28;20037;-79
2024/04/03 05:59:45;;;;;;;5.47;1.63;;;;;;;12.03;100.00;100261.47;5258715;28;20056;-80
2024/04/03 06:02:17;;;;;;;5.35;1.88;;;;;;;11.98;100.00;100251.44;5236309;28;20772;-79
2024/04/03 06:04:49;;;;;;;6.30;1.70;;;;;;;12.00;100.00;100265.22;5252280;28;20025;-79
2024/04/03 06:07:21;;;;;;;6.07;1.55;;;;;;;12.00;100.00;100261.75;5255598;28;20032;-80
2024/04/03 06:09:53;;;;;;;5.15;2.03;;;;;;;12.01;100.00;100259.00;5253121;28;20043;-79
2024/04/03 06:12:25;;;;;;;3.83;1.45;;;;;;;12.04;100.00;100263.09;5251001;28;20043;-79
2024/04/03 06:14:57;;;;;;;5.20;1.70;;;;;;;11.97;100.00;100243.69;5253861;28;20043;-80
2024/04/03 06:17:29;;;;;;;5.45;1.77;;;;;;;12.06;100.00;100263.78;5253709;28;20029;-79
2024/04/03 06:20:01;;;;;;;5.68;2.20;;;;;;;12.07;100.00;100252.28;5254049;28;20044;-79
2024/04/03 06:22:33;;;;;;;5.28;1.70;;;;;;;12.03;100.00;100259.66;5257504;28;20398;-79
2024/04/03 06:25:06;;;;;;;5.70;2.20;;;;;;;12.08;100.00;100257.38;5255950;28;20036;-79
2024/04/03 06:27:38;;;;;;;4.53;1.70;;;;;;;12.09;100.00;100260.84;5258912;28;20041;-79
2024/04/03 06:30:10;;;;;;;3.90;1.90;;;;;;;12.08;100.00;100253.94;5257635;28;20627;-78
2024/04/03 06:32:42;;;;;;;5.77;2.00;;;;;;;12.15;100.00;100253.16;5242351;28;20048;-79
2024/04/03 06:35:14;;;;;;;4.57;1.80;;;;;;;12.12;100.00;100255.28;5257646;28;20090;-79
2024/04/03 06:37:46;;;;;;;10.55;2.38;;;;;;;12.06;100.00;100238.34;5256147;28;20037;-78
2024/04/03 06:40:19;;;;;;;6.65;2.00;;;;;;;12.12;100.00;100250.88;5257226;28;20040;-78
2024/04/03 06:42:51;;;;;;;6.40;1.75;;;;;;;12.13;100.00;100251.69;5257690;28;20032;-79
2024/04/03 06:45:23;;;;;;;9.93;2.33;;;;;;;12.11;100.00;100248.38;5258001;28;20049;-79
2024/04/03 06:47:54;;;;;;;6.93;1.88;;;;;;;12.12;100.00;100253.50;5254323;28;20140;-79
2024/04/03 06:50:26;;;;;;;4.93;1.90;;;;;;;12.14;100.00;100248.06;5256997;28;20104;-80
2024/04/03 06:53:00;;;;;;;5.78;2.17;;;;;;;12.11;100.00;100251.81;5238038;28;20044;-79
2024/04/03 06:55:32;;;;;;;5.35;1.98;;;;;;;12.11;100.00;100237.88;5249572;28;20028;-79
2024/04/03 06:58:05;;;;;;;5.43;2.15;;;;;;;12.09;100.00;100243.28;5250316;28;20375;-79
2024/04/03 07:00:36;;;;;;;5.93;2.13;;;;;;;12.10;100.00;100238.88;5251285;28;20044;-79
2024/04/03 07:03:08;;;;;;;6.35;1.77;;;;;;;12.10;100.00;100231.00;5249431;28;20033;-79
2024/04/03 07:05:40;;;;;;;4.85;1.67;;;;;;;12.06;100.00;100227.03;5248734;28;20131;-79
2024/04/03 07:08:13;;;;;;;6.32;1.83;;;;;;;12.13;100.00;100235.94;5250176;28;20041;-80
2024/04/03 07:10:45;;;;;;;4.40;1.73;;;;;;;12.11;100.00;100225.56;5251611;28;20045;-79
2024/04/03 07:13:17;;;;;;;5.30;2.05;;;;;;;12.14;100.00;100229.69;5246742;28;20028;-79
2024/04/03 07:15:49;;;;;;;3.67;1.75;;;;;;;12.17;100.00;100230.22;5249019;28;20036;-79
2024/04/03 07:18:22;;;;;;;5.87;2.13;;;;;;;12.19;100.00;100222.16;5249538;28;20029;-79
2024/04/03 07:20:58;;;;;;;5.75;2.08;;;;;;;12.33;100.00;100226.84;5250686;28;20291;-79
2024/04/03 07:23:31;;;;;;;5.10;1.80;;;;;;;12.20;100.00;100229.09;5233501;28;20090;-79
2024/04/03 07:26:03;;;;;;;4.35;1.65;;;;;;;12.31;100.00;100220.09;5252788;28;20024;-79
2024/04/03 07:28:35;;;;;;;4.25;1.60;;;;;;;12.33;100.00;100218.97;5251966;28;20037;-80
2024/04/03 07:31:07;;;;;;;5.45;2.17;;;;;;;12.34;100.00;100217.97;5251198;28;20134;-79
2024/04/03 07:33:39;;;;;;;6.23;2.13;;;;;;;12.36;100.00;100213.41;5251495;28;20040;-79
2024/04/03 07:36:11;;;;;;;3.30;1.55;;;;;;;12.41;100.00;100221.63;5233233;28;20517;-79
2024/04/03 07:38:43;;;;;;;5.00;1.83;;;;;;;12.41;100.00;100213.75;5250586;28;20096;-79
2024/04/03 07:41:32;;;;;;;5.60;2.00;;;;;;;12.69;100.00;100224.06;5251470;28;20170;-80
2024/04/03 07:44:04;;;;;;;5.65;2.20;;;;;;;12.45;100.00;100216.06;5252231;28;20052;-80
2024/04/03 07:46:36;;;;;;;3.67;1.63;;;;;;;12.44;100.00;100220.50;5248474;28;20037;-80
2024/04/03 07:49:09;;;;;;;5.88;2.10;;;;;;;12.43;100.00;100212.78;5249825;28;20037;-79
2024/04/03 07:51:41;;;;;;;4.23;1.53;;;;;;;12.46;100.00;100221.16;5250640;28;20040;-80
2024/04/03 07:54:13;;;;;;;5.32;2.05;;;;;;;12.45;100.00;100216.88;5251079;28;20039;-79
2024/04/03 07:56:45;;;;;;;6.18;1.73;;;;;;;12.43;100.00;100220.66;5253924;28;20147;-79
2024/04/03 07:59:17;;;;;;;2.72;1.20;;;;;;;12.43;100.00;100228.53;5251871;28;20080;-79
2024/04/03 08:01:49;;;;;;;6.80;2.50;;;;;;;12.43;100.00;100229.38;5252849;28;20076;-80
2024/04/03 08:04:23;;;;;;;3.75;1.38;;;;;;;12.43;100.00;100228.53;5253333;28;20152;-80
2024/04/03 08:06:55;;;;;;;3.85;1.42;;;;;;;12.52;100.00;100232.84;5253893;28;20029;-80
2024/04/03 08:09:30;;;;;;;3.50;1.23;;;;;;;12.55;100.00;100224.66;5237080;28;20727;-80
2024/04/03 08:12:02;;;;;;;3.95;1.48;;;;;;;12.50;100.00;100232.16;5255713;28;20025;-80
2024/04/03 08:14:34;;;;;;;4.43;1.40;;;;;;;12.54;100.00;100230.88;5255220;28;20033;-80
2024/04/03 08:17:09;;;;;;;4.25;1.40;;;;;;;12.57;100.00;100234.00;5260171;28;20048;-79
2024/04/03 08:19:41;;;;;;;4.57;1.60;;;;;;;12.49;100.00;100226.09;5258690;28;20398;-79
2024/04/03 08:22:13;;;;;;;3.30;1.45;;;;;;;12.55;100.00;100238.59;5260984;28;20040;-79
2024/04/03 08:24:47;;;;;;;3.53;1.40;;;;;;;12.57;100.00;100241.06;5261183;28;20120;-79
2024/04/03 08:27:19;;;;;;;3.33;1.10;;;;;;;12.57;100.00;100230.56;5257606;28;20028;-80
2024/04/03 08:29:55;;;;;;;3.13;1.50;;;;;;;12.51;100.00;100225.94;5254979;28;20107;-80
2024/04/03 08:32:27;;;;;;;4.15;1.45;;;;;;;12.59;100.00;100239.13;5260522;28;20028;-79
2024/04/03 08:35:00;;;;;;;4.50;1.25;;;;;;;12.58;100.00;100230.41;5259298;28;20051;-80
2024/04/03 08:37:32;;;;;;;4.35;1.35;;;;;;;12.69;100.00;100239.81;5263602;28;20044;-80
2024/04/03 08:40:05;;;;;;;6.18;1.55;;;;;;;12.69;100.00;100234.56;5258715;28;20043;-79
2024/04/03 08:42:37;;;;;;;3.40;1.40;;;;;;;12.82;100.00;100240.19;5264954;28;20380;-80
2024/04/03 08:45:12;;;;;;;5.10;1.25;;;;;;;12.84;100.00;100232.97;5257070;28;20044;-79
2024/04/03 08:47:46;;;;;;;3.33;1.17;;;;;;;12.95;100.00;100233.66;5260094;28;20036;-80
2024/04/03 08:50:19;;;;;;;4.53;1.30;;;;;;;12.83;100.00;100218.16;5260382;28;20032;-80
2024/04/03 08:52:52;;;;;;;2.75;1.13;;;;;;;13.02;100.00;100234.66;5263322;28;20032;-80
2024/04/03 08:55:24;;;;;;;2.80;1.20;;;;;;;13.04;100.00;100230.06;5254863;28;20036;-80
2024/04/03 08:57:56;;;;;;;3.03;1.30;;;;;;;13.03;100.00;100229.25;5260552;28;20024;-81
2024/04/03 09:00:29;;;;;;;2.92;1.10;;;;;;;13.10;100.00;100226.78;5257964;28;20025;-80
2024/04/03 09:03:01;;;;;;;4.82;1.58;;;;;;;13.07;100.00;100221.88;5258468;28;20031;-82
2024/04/03 09:05:33;;;;;;;2.25;1.13;;;;;;;13.19;100.00;100231.09;5259931;28;20025;-79
2024/04/03 09:08:07;;;;;;;4.88;1.50;;;;;;;13.25;100.00;100216.47;5259683;28;20087;-80
2024/04/03 09:10:49;;;;;;;4.85;1.23;;;;;;;13.36;100.00;100230.13;5259615;28;20037;-80
2024/04/03 09:13:22;;;;;;;2.72;1.23;;;;;;;13.35;100.00;100220.59;5258909;28;20021;-80
2024/04/03 09:15:54;;;;;;;1.90;1.00;;;;;;;13.43;100.00;100222.41;5257691;28;20036;-80
2024/04/03 09:18:26;;;;;;;3.95;1.92;;;;;;;13.54;100.00;100218.63;5259039;28;20029;-80
2024/04/03 09:21:02;;;;;;;2.75;1.00;;;;;;;13.65;100.00;100223.56;5259318;28;20470;-80
2024/04/03 09:23:34;;;;;;;2.22;1.20;;;;;;;13.59;100.00;100225.03;5239579;28;20033;-80
2024/04/03 09:26:06;;;;;;;2.47;0.98;;;;;;;13.70;100.00;100208.09;5257319;28;20045;-80
2024/04/03 09:28:38;;;;;;;3.03;1.10;;;;;;;13.76;100.00;100225.06;5258800;28;20044;-80
2024/04/03 09:31:10;;;;;;;1.98;1.00;;;;;;;13.74;100.00;100219.94;5258092;28;20029;-80
2024/04/03 09:33:44;;;;;;;4.15;1.10;;;;;;;13.80;100.00;100216.66;5258789;28;20074;-80
2024/04/03 09:36:17;;;;;;;5.60;1.45;;;;;;;13.88;100.00;100231.63;5258289;28;20494;-80
2024/04/03 09:38:50;;;;;;;2.95;1.10;;;;;;;13.90;100.00;100216.47;5238132;28;20038;-80
2024/04/03 09:41:23;;;;;;;2.43;1.07;;;;;;;13.94;100.00;100222.22;5265774;28;20028;-80
2024/04/03 09:43:58;;;;;;;;;;;;;;;14.64;100.00;100225.00;5280219;28;20401;-80
2024/04/03 09:46:43;;;;;;;2.60;1.10;;;;;;;14.18;100.00;100222.19;5279805;28;19916;-80
2024/04/03 09:49:17;;;;;;;2.90;1.15;;;;;;;13.95;100.00;100210.72;5279296;28;20036;-80
2024/04/03 09:51:50;;;;;;;2.50;0.93;;;;;;;14.06;100.00;100210.38;5279329;28;20024;-80
2024/04/03 09:54:24;;;;;;;2.35;1.25;;;;;;;14.18;100.00;100206.38;5279409;28;20474;-80
2024/04/03 09:56:56;;;;;;;3.35;1.40;;;;;;;14.08;100.00;100205.72;5279353;28;20044;-79
2024/04/03 09:59:28;;;;;;;1.92;0.90;;;;;;;14.09;100.00;100202.94;5279837;28;20470;-80
2024/04/03 10:02:01;;;;;;;1.40;0.85;;;;;;;14.09;100.00;100192.41;5278290;28;20113;-80
2024/04/03 10:04:34;;;;;;;;;;;;;;;14.88;100.00;100197.69;5284536;28;20434;-80
2024/04/03 10:07:21;;;;;;;2.10;1.00;;;;;;;14.48;100.00;100198.69;5286565;28;19919;-80
2024/04/03 10:09:54;;;;;;;1.55;0.82;;;;;;;14.21;100.00;100197.31;5283721;28;20595;-80
2024/04/03 10:12:27;;;;;;;2.15;0.73;;;;;;;14.34;100.00;100194.97;5266142;28;20494;-79
2024/04/03 10:14:59;;;;;;;2.42;0.85;;;;;;;14.45;100.00;100197.22;5260623;28;20036;-79
2024/04/03 10:17:37;;;;;;;2.27;1.33;;;;;;;14.73;100.00;100202.06;5268548;28;20032;-79
2024/04/03 10:20:11;;;;;;;2.38;0.85;;;;;;;14.67;100.00;100206.22;5271351;28;20033;-79
2024/04/03 10:22:44;;;;;;;2.03;0.90;;;;;;;14.69;100.00;100209.50;5262195;28;20040;-79
2024/04/03 10:25:17;;;;;;;2.25;0.65;;;;;;;14.75;100.00;100203.53;5257591;28;20033;-79
2024/04/03 10:27:49;;;;;;;1.67;0.60;;;;;;;14.81;100.00;100202.00;5259921;28;20029;-79
2024/04/03 10:30:21;;;;;;;1.70;0.50;;;;;;;14.78;100.00;100207.66;5254698;28;20033;-79
2024/04/03 10:32:53;;;;;;;1.33;0.50;;;;;;;14.72;100.00;100211.78;5259153;28;20043;-79
2024/04/03 10:35:28;;;;;;;1.02;0.40;;;;;;;14.78;100.00;100200.56;5260266;28;20028;-79
2024/04/03 10:38:01;;;;;;;1.60;0.60;;;;;;;14.73;100.00;100208.16;5260603;28;20029;-79
2024/04/03 10:40:33;;;;;;;;;;;;;;;15.39;100.00;100213.84;5263722;28;20036;-79
2024/04/03 10:43:05;;;;;;;1.10;0.65;;;;;;;14.77;100.00;100213.91;5261072;28;19924;-79
2024/04/03 10:45:37;;;;;;;2.30;0.70;;;;;;;14.70;100.00;100213.78;5258666;28;20077;-79
2024/04/03 10:48:09;;;;;;;1.85;0.60;;;;;;;14.77;100.00;100206.00;5263335;28;20390;-79
2024/04/03 10:50:42;;;;;;;1.02;0.50;;;;;;;14.83;100.00;100218.50;5261852;28;20051;-79
2024/04/03 10:53:14;;;;;;;1.13;0.40;;;;;;;14.94;100.00;100223.38;5262051;28;20680;-79
2024/04/03 10:55:47;;;;;;;1.52;0.40;;;;;;;14.90;100.00;100216.00;5263842;28;20035;-79
2024/04/03 10:58:20;;;;;;;1.48;0.60;;;;;;;14.80;100.00;100210.94;5258119;28;20844;-79
2024/04/03 11:00:52;;;;;;;2.47;0.50;;;;;;;14.68;100.00;100218.41;5259548;28;20055;-79
2024/04/03 11:03:24;;;;;;;1.85;0.45;;;;;;;14.68;100.00;100214.94;5265368;28;20020;-79
2024/04/03 11:05:56;;;;;;;1.00;0.50;;;;;;;14.62;100.00;100218.25;5262747;28;20123;-80
2024/04/03 11:08:28;;;;;;;1.98;0.60;;;;;;;14.72;100.00;100219.69;5245493;28;20078;-79
2024/04/03 11:11:10;;;;;;;0.90;0.60;;;;;;;14.63;100.00;100207.56;5264344;28;20148;-79
2024/04/03 11:13:48;;;;;;;2.15;0.57;;;;;;;14.69;100.00;100219.22;5259595;28;20033;-79
2024/04/03 11:16:22;;;;;;;1.60;0.70;;;;;;;14.59;100.00;100220.25;5257412;28;20048;-79
2024/04/03 11:18:54;;;;;;;3.08;1.00;;;;;;;14.64;100.00;100222.38;5257975;28;20025;-79
2024/04/03 11:21:27;;;;;;;1.38;0.60;;;;;;;14.63;100.00;100218.09;5260981;28;20488;-79
2024/04/03 11:23:58;;;;;;;1.42;0.50;;;;;;;14.73;100.00;100218.69;5253057;28;20048;-79
2024/04/03 11:26:31;;;;;;;1.42;0.70;;;;;;;14.59;100.00;100215.00;5264207;28;20040;-79
2024/04/03 11:29:25;;;;;;;0.90;0.43;;;;;;;15.04;100.00;100220.53;5257649;28;20036;-79
2024/04/03 11:31:59;;;;;;;1.02;0.52;;;;;;;14.84;100.00;100217.50;5255772;28;20035;-79
2024/04/03 11:34:31;;;;;;;0.98;0.50;;;;;;;14.77;100.00;100217.38;5264871;28;20047;-79
2024/04/03 11:37:03;;;;;;;1.23;0.40;;;;;;;14.68;100.00;100222.84;5264803;28;20482;-79
2024/04/03 11:39:35;;;;;;;2.03;0.50;;;;;;;14.64;100.00;100219.75;5251362;28;20040;-78
2024/04/03 11:42:07;;;;;;;1.60;0.60;;;;;;;14.51;100.00;100219.47;5245558;28;20795;-79
2024/04/03 11:44:39;;;;;;;0.80;0.40;;;;;;;14.62;100.00;100226.97;5248013;28;20040;-78
2024/04/03 11:47:11;;;;;;;0.60;0.40;;;;;;;14.56;100.00;100227.69;5248227;28;20047;-78